Aérodrome :
LOGIN :

S'inscrire | Disclaimer

   EN    FR    IT 

 










Légende :    VFR   VFR Marginal   IFR   IFR Intensif   IFR Très Intensif
Visi : 
Plafond : 
>= 8 km
>= 3000ft
5 à 8 km
1000 à 3000 ft
1500m à 5 km
500 à 1000 ft
800 à 1500m
200 à 500 ft
< 800m
< 200 ft
Symboles :   Orages  Brouillard  Fortes neiges  Fortes précipitations  Vent > 20 kt
SIGMETs :   Divers  Orages  Givrage  Turbulence  Onde Orograph.  Cendres Volcan.







- Altitude de l'aérodrome : 1411 ft
- Code IATA : GVA


LSGG - Genève Cointrin

DERNIER METAR :
  • 270350Z VRB01KT CAVOK 13/12 Q1020 NOSIG

METARs EXPIRÉS :
  • 270320Z AUTO 26002KT 9999 NCD 13/12 Q1020 NOSIG
  • 270250Z AUTO VRB01KT 9999 NCD 13/11 Q1019 NOSIG
  • 270220Z AUTO VRB02KT 9999 NCD 14/12 Q1019 NOSIG
  • 270150Z AUTO 25002KT 9999 NCD 14/12 Q1019 NOSIG
  • 270120Z AUTO VRB01KT 9999 NCD 14/13 Q1018 NOSIG

TAF TAF LSGG
Valide du 27 à 03h jusqu'au 28 à 09h UTC


270225Z 2703/2809 VRB03KT 9999 FEW060 TX26/2715Z TN13/2705Z TN14/2805Z
BECMG 2710/2712 06008KT
BECMG 2718/2721 VRB03KT
ATIS : +41 22 417 40 81
Pas de NOTAMs connus pour ce terrain.



MET'MAP, la Météo Aéronautique d'un coup d'oeil ! - Copyright ORBIFLY Décembre 2007 - Disclaimer

ORBIFLY MET'MAP TEAM :

Programmation & Développement : Alexandra Zaïnal
Conception & Développement : Baudouin d'Aumeries
Co-Programmation & Développement : Marc-Olivier Méhu
Soutien technique & logistique : Manuel Goepfert

Contact : metmap@orbifly.com




SOURCES & CREDITS :

   NOAA